Terminal Aerodrome Forecast
Issued by NWS

Home | Current Version | Previous Version | Text Only | Print | Product List | Glossary Off
Versions: 1 2 3 4 5 6 7 8 9 10 11 12 13 14 15 16 17 18 19 20 21

641
FTUS43 KBIS 030107 AAA
TAFMOT
TAF AMD
KMOT 030107Z 0301/0324 VRB05KT P6SM SCT025 BKN050
     FM031400 24006KT P6SM OVC020=

USA.gov is the U.S. government's official web portal to all federal, state and local government web resources and services.